Aviation Digital Data Service (ADDS)

Output produced by METARs form (1846 UTC 22 May 2019)
found at http://aviationweather.gov/metar/data/
 
LSZH 221820Z 30004KT 9999 FEW060 SCT220 17/07 Q1019 NOSIG
LSZH 221750Z 30003KT 260V330 9999 FEW060 SCT220 18/07 Q1019 NOSIG
TAF LSZH 221725Z 2218/2324 VRB03KT 9999 FEW060 SCT220 TX21/2315Z TN06/2304Z 
     BECMG 2218/2220 CAVOK 
     BECMG 2301/2303 4000 MIFG NSC 
     PROB30 2303/2306 1500 BCFG SCT002 
     BECMG 2306/2309 04007KT 9999 FEW040 
     BECMG 2316/2319 VRB03KT CAVOK
       
LFSB 221830Z 01004KT 340V040 CAVOK 17/07 Q1019 NOSIG
LFSB 221800Z 02004KT 350V050 CAVOK 18/06 Q1019 NOSIG
TAF LFSB 221700Z 2218/2318 35005KT CAVOK 
     PROB40 
     TEMPO 2301/2305 MIFG
       
LSZG 221820Z AUTO 34007KT CAVOK 17/04 Q1018
LSZG 221750Z AUTO 35007KT CAVOK 18/04 Q1018
TAF LSZG 221425Z 2215/2224 VRB02KT 9999 SCT050 SCT250 
     PROB40 2215/2221 34012G25KT CAVOK 
     PROB40 2221/2224 4500 BR
       
LSZB 221820Z 01005KT 9999 FEW070 17/06 Q1018 NOSIG
LSZB 221750Z 35006KT 9999 SCT070 18/07 Q1018 NOSIG
TAF LSZB 221425Z 2215/2224 VRB03KT 9999 SCT050 
     BECMG 2216/2219 CAVOK 
     PROB30 2222/2224 4000 MIFG
       
LSGG 221820Z 03005KT 9999 FEW060 19/06 Q1018 NOSIG
LSGG 221750Z 04005KT 9999 FEW050 20/06 Q1017 NOSIG
TAF LSGG 221725Z 2218/2324 04010KT 9999 FEW050 TX22/2315Z TN06/2305Z 
     BECMG 2219/2221 VRB03KT CAVOK 
     BECMG 2309/2311 04008KT 9999 FEW040 
     BECMG 2317/2320 VRB03KT CAVOK
       
LSZR 221820Z 04003KT 9999 FEW045 17/09 Q1019 NOSIG RMK O
LSZR 221750Z 04003KT 9999 FEW045 17/09 Q1019 NOSIG RMK O
TAF LSZR 221425Z 2215/2224 08005KT 9999 FEW025 BKN130 
     BECMG 2216/2219 CAVOK 
     BECMG 2221/2224 4000 MIFG
       
LSGS 221820Z AUTO 22008KT 9999 SCT100 20/06 Q1016
LSGS 221750Z 24006KT 9999 FEW100 21/07 Q1015
TAF LSGS 221425Z 2215/2224 25010KT 9999 SCT080 
     BECMG 2217/2220 VRB03KT
       
LSZA 221820Z 18004KT 9999 FEW050 SCT100 18/15 Q1013 NOSIG
LSZA 221750Z VRB03KT 9999 FEW050 SCT100 BKN140 19/16 Q1013 NOSIG
TAF LSZA 221425Z 2215/2224 17005KT 9999 FEW050 SCT060 
     TEMPO 2215/2217 SHRA SCT050TCU 
     PROB30 
     TEMPO 2215/2217 TSRA FEW050CB 
     BECMG 2217/2220 CAVOK 
     PROB30 2218/2224 01012G25KT
       
EDNY 221820Z VRB02KT 9999 FEW059 SCT075 16/09 Q1019
EDNY 221750Z VRB02KT CAVOK 17/09 Q1019
TAF EDNY 221700Z 2218/2318 VRB03KT CAVOK 
     PROB30 
     TEMPO 2302/2306 1200 BCFG 
     BECMG 2310/2312 25005KT 
     BECMG 2316/2318 VRB03KT
       
EDDS 221820Z 33008KT CAVOK 15/07 Q1019 NOSIG
EDDS 221750Z 31009KT 9999 FEW045 16/07 Q1019 NOSIG
TAF EDDS 221700Z 2218/2318 33008KT CAVOK 
     BECMG 2218/2221 VRB02KT 
     BECMG 2311/2313 03005KT
       
LOWI 221820Z 08005KT 040V110 9999 FEW040 BKN075 14/09 Q1019 NOSIG
LOWI 221750Z 07007KT 9999 FEW040 BKN070 14/09 Q1018 NOSIG
TAF LOWI 221715Z 2218/2318 09006KT 9999 SCT050 BKN070 TX20/2313Z TN10/2304Z 
     TEMPO 2218/2222 27010G20KT -SHRA 
     BECMG 2220/2222 VRB02KT SCT020 BKN040 
     BECMG 2309/2311 09006KT FEW050 SCT070
       
EDDM 221820Z 27006KT 9999 FEW020 13/09 Q1019 NOSIG
EDDM 221750Z 26006KT 9999 FEW020 13/09 Q1019 NOSIG
TAF EDDM 221700Z 2218/2324 28006KT 9999 SCT015 BKN030 
     BECMG 2301/2303 VRB03KT 
     TEMPO 2301/2307 2000 BCFG 
     PROB30 
     TEMPO 2302/2306 0500 FG
       
LFMD 221830Z AUTO 16003KT 130V200 9999 FEW017 OVC032 17/14 Q1015 NOSIG
LFMD 221800Z AUTO 18004KT 9999 OVC029/// ///TCU 17/14 Q1015 TEMPO NSC
TAF LFMD 221400Z 2215/2315 15010KT 9999 BKN025 
     PROB30 
     TEMPO 2215/2223 CAVOK 
     BECMG 2220/2222 07005KT 
     BECMG 2300/2302 BKN010 
     PROB30 
     TEMPO 2302/2307 3000 BR BKN008 
     BECMG 2308/2310 16010KT SCT015 
     TEMPO 2310/2315 BKN015
       
LFLL 221830Z 01011KT CAVOK 20/07 Q1018 NOSIG
LFLL 221800Z 36011KT CAVOK 20/06 Q1018 NOSIG
TAF LFLL 221700Z 2218/2324 36006KT CAVOK 
     TEMPO 2222/2308 VRB02KT
       
LIMC 221820Z 21006KT 9999 SCT070 22/13 Q1013 NOSIG
LIMC 221750Z 20008KT CAVOK 23/13 Q1013 NOSIG
TAF LIMC 221700Z 2218/2324 VRB05KT 9999 SCT040 
     TEMPO 2218/2222 TSRA 
     PROB40 
     TEMPO 2321/2324 TSRA
       
TAF LFPB 221700Z 2218/2318 12003KT CAVOK
       
LIPZ 221820Z 16004KT 140V200 CAVOK 18/15 Q1014 NOSIG
LIPZ 221750Z 15005KT 120V180 CAVOK 18/15 Q1014 NOSIG
TAF LIPZ 221700Z 2218/2324 VRB05KT 8000 FEW040 
     PROB30 
     TEMPO 2218/2221 TSRA 
     TEMPO 2222/2305 4000 BR 
     BECMG 2308/2310 16010KT 
     BECMG 2317/2319 VRB05KT